Terminal Aerodrome Forecast
Issued by NWS

Home | Current Version | Previous Version | Text Only | Print | Product List | Glossary On
Versions: 1 2 3 4 5 6 7 8 9 10 11 12 13 14 15 16 17 18 19 20 21 22
000
FTUS45 KFGZ 050527
TAFPRC
TAF
KPRC 050527Z 0506/0606 22008KT P6SM SCT035 BKN060
     FM050800 VRB05KT P6SM -SHRA BKN030 BKN045
      TEMPO 0512/0516 5SM -SHRA BR SCT018 OVC025
     FM051600 20010KT P6SM -SHRA BKN025 OVC035
     FM051900 22014KT P6SM SCT030 BKN040
      TEMPO 0519/0523 -TSRA OVC040CB
     FM060100 20008KT P6SM SCT035 SCT050=

USA.gov is the U.S. government's official web portal to all federal, state and local government web resources and services.